createdAt,value
2018-03-15T00:02:56.435Z,8.43
2018-03-15T00:07:47.324Z,8.80
2018-03-15T00:12:38.965Z,9.07
2018-03-15T00:17:29.861Z,9.50
2018-03-15T00:22:20.757Z,10.10
2018-03-15T00:27:11.657Z,9.83
2018-03-15T00:32:02.572Z,8.70
2018-03-15T00:36:54.209Z,9.50
2018-03-15T00:41:45.105Z,10.40
2018-03-15T00:46:36.757Z,10.07
2018-03-15T00:51:27.661Z,9.47
2018-03-15T00:56:18.554Z,11.47
2018-03-15T01:01:10.201Z,10.23
2018-03-15T01:06:01.099Z,10.00
2018-03-15T01:10:51.998Z,10.00
2018-03-15T01:15:42.894Z,10.57
2018-03-15T01:20:33.789Z,8.93
2018-03-15T01:25:25.424Z,8.87
2018-03-15T01:30:16.322Z,11.03
2018-03-15T01:35:07.221Z,10.30
2018-03-15T01:39:58.918Z,10.07
2018-03-15T01:44:50.555Z,9.87
2018-03-15T01:49:41.433Z,10.87
2018-03-15T01:54:32.348Z,10.33
2018-03-15T01:59:23.993Z,12.13
2018-03-15T02:04:14.891Z,11.53
2018-03-15T02:09:05.783Z,10.67
2018-03-15T02:13:56.683Z,10.30
2018-03-15T02:18:47.579Z,10.70
2018-03-15T02:23:38.474Z,11.40
2018-03-15T02:28:29.468Z,10.53
2018-03-15T02:33:21.119Z,11.43
2018-03-15T02:38:12.026Z,9.63
2018-03-15T02:43:03.655Z,11.50
2018-03-15T02:47:55.301Z,9.90
2018-03-15T02:52:46.202Z,11.13
2018-03-15T02:57:37.103Z,12.80
2018-03-15T03:02:28.003Z,13.43
2018-03-15T03:07:18.905Z,12.90
2018-03-15T03:12:10.639Z,10.63
2018-03-15T03:17:01.569Z,12.07
2018-03-15T03:21:52.515Z,12.87
2018-03-15T03:26:43.411Z,11.40
2018-03-15T03:31:35.047Z,12.83
2018-03-15T03:36:25.947Z,12.00
2018-03-15T03:41:16.852Z,11.70
2018-03-15T03:46:07.871Z,14.43
2018-03-15T03:50:58.767Z,14.13
2018-03-15T03:55:49.674Z,13.90
2018-03-15T04:00:40.563Z,13.17
2018-03-15T04:05:31.468Z,13.53
2018-03-15T04:10:23.098Z,13.83
2018-03-15T04:15:13.997Z,14.00
2018-03-15T04:20:04.895Z,13.90
2018-03-15T04:24:55.783Z,13.77
2018-03-15T04:29:46.667Z,13.87
2018-03-15T04:34:37.564Z,14.43
2018-03-15T04:39:28.463Z,11.57
2018-03-15T04:44:19.367Z,13.93
2018-03-15T04:49:10.254Z,12.60
2018-03-15T04:54:01.163Z,12.13
2018-03-15T04:58:52.073Z,12.77
2018-03-15T05:03:42.970Z,13.53
2018-03-15T05:08:33.894Z,13.83
2018-03-15T05:13:25.523Z,14.00
2018-03-15T05:18:16.426Z,14.10
2018-03-15T05:23:07.479Z,12.73
2018-03-15T05:27:58.380Z,12.97
2018-03-15T05:32:49.272Z,12.87
2018-03-15T05:37:40.172Z,13.33
2018-03-15T05:42:31.131Z,13.80
2018-03-15T05:47:22.027Z,16.63
2018-03-15T05:52:13.667Z,12.10
2018-03-15T05:57:04.562Z,13.63
2018-03-15T06:01:55.460Z,16.20
2018-03-15T06:06:46.347Z,13.50
2018-03-15T06:11:37.235Z,13.80
2018-03-15T06:16:28.158Z,15.43
2018-03-15T06:21:19.832Z,14.70
2018-03-15T06:26:10.735Z,15.90
2018-03-15T06:31:01.641Z,16.73
2018-03-15T06:35:52.539Z,16.57
2018-03-15T06:40:43.440Z,16.90
2018-03-15T06:45:34.388Z,17.90
2018-03-15T06:50:25.291Z,17.80
2018-03-15T06:55:16.196Z,17.80
2018-03-15T07:00:07.098Z,18.87
2018-03-15T07:04:58.730Z,17.80
2018-03-15T07:09:49.632Z,17.90
2018-03-15T07:14:41.271Z,17.73
2018-03-15T07:19:32.167Z,18.03
2018-03-15T07:24:23.064Z,14.53
2018-03-15T07:29:14.129Z,13.73
2018-03-15T07:34:05.047Z,13.87
2018-03-15T07:38:55.939Z,16.03
2018-03-15T07:43:46.844Z,15.37
2018-03-15T07:48:37.747Z,14.23
2018-03-15T07:53:29.406Z,14.87
2018-03-15T07:58:21.031Z,14.17
2018-03-15T08:03:11.931Z,14.47
2018-03-15T08:08:03.573Z,14.60
2018-03-15T08:12:54.480Z,13.53
2018-03-15T08:17:46.121Z,14.10
2018-03-15T08:22:37.763Z,13.80
2018-03-15T08:27:29.399Z,14.30
2018-03-15T08:32:20.291Z,13.47
2018-03-15T08:37:11.183Z,13.40
2018-03-15T08:42:02.071Z,11.50
2018-03-15T08:46:53.699Z,14.40
2018-03-15T08:51:44.610Z,11.37
2018-03-15T08:56:35.505Z,13.30
2018-03-15T09:01:26.408Z,12.20
2018-03-15T09:06:17.298Z,12.07
2018-03-15T09:11:08.960Z,10.40
2018-03-15T09:15:59.855Z,12.90
2018-03-15T09:20:51.508Z,10.73
2018-03-15T09:25:42.404Z,10.20
2018-03-15T09:30:33.302Z,11.63
2018-03-15T09:35:24.202Z,9.57
2018-03-15T09:40:15.132Z,10.33
2018-03-15T09:45:06.022Z,10.50
2018-03-15T09:49:57.679Z,12.20
2018-03-15T09:54:48.592Z,11.17
2018-03-15T09:59:39.495Z,10.90
2018-03-15T10:04:30.403Z,10.70
2018-03-15T10:09:21.302Z,10.83
2018-03-15T10:14:12.203Z,13.50
2018-03-15T10:19:03.104Z,9.37
2018-03-15T10:23:54.004Z,9.67
2018-03-15T10:28:44.923Z,10.17
2018-03-15T10:33:36.694Z,11.33
2018-03-15T10:38:27.585Z,10.10
2018-03-15T10:43:18.500Z,9.60
2018-03-15T10:48:09.396Z,10.27
2018-03-15T10:53:00.308Z,10.80
2018-03-15T10:57:51.227Z,10.13
2018-03-15T11:02:46.241Z,9.47
2018-03-15T11:07:39.106Z,10.77
2018-03-15T11:12:30.024Z,9.60
2018-03-15T11:17:21.675Z,9.93
2018-03-15T11:22:12.583Z,10.10
2018-03-15T11:27:03.498Z,9.87
2018-03-15T11:31:54.408Z,9.43
2018-03-15T11:36:46.050Z,10.00
2018-03-15T11:41:36.955Z,9.20
2018-03-15T11:46:27.864Z,8.43
2018-03-15T11:51:18.781Z,9.40
2018-03-15T11:56:09.745Z,9.60
2018-03-15T12:01:01.361Z,8.47
2018-03-15T12:05:52.323Z,9.13
2018-03-15T12:10:43.231Z,9.43
2018-03-15T12:15:34.144Z,11.20
2018-03-15T12:20:25.053Z,9.47
2018-03-15T12:25:15.945Z,10.07
2018-03-15T12:30:07.616Z,10.50
2018-03-15T12:34:58.505Z,10.10
2018-03-15T12:39:49.425Z,8.57
2018-03-15T12:44:41.059Z,9.90
2018-03-15T12:49:31.960Z,9.70
2018-03-15T12:54:22.860Z,10.07
2018-03-15T12:59:13.764Z,7.90
2018-03-15T13:04:04.664Z,10.00
2018-03-15T13:08:55.599Z,8.07
2018-03-15T13:13:46.583Z,7.37
2018-03-15T13:18:38.224Z,7.90
2018-03-15T13:23:29.850Z,8.27
2018-03-15T13:28:21.538Z,6.60
2018-03-15T13:33:12.401Z,6.53
2018-03-15T13:38:04.921Z,7.27
2018-03-15T13:42:55.891Z,7.07
2018-03-15T13:47:46.783Z,6.40
2018-03-15T13:52:37.683Z,8.37
2018-03-15T13:57:29.314Z,7.37
2018-03-15T14:02:20.254Z,6.17
2018-03-15T14:07:11.143Z,8.50
2018-03-15T14:12:02.046Z,6.90
2018-03-15T14:16:52.946Z,6.23
2018-03-15T14:21:43.899Z,6.80
2018-03-15T14:26:34.798Z,6.70
2018-03-15T14:31:25.712Z,7.00
2018-03-15T14:36:16.602Z,8.63
2018-03-15T14:41:07.490Z,8.40
2018-03-15T14:45:58.387Z,10.13
2018-03-15T14:50:49.279Z,7.10
2018-03-15T14:55:40.964Z,8.17
2018-03-15T15:00:31.838Z,6.60
2018-03-15T15:05:22.722Z,8.47
2018-03-15T15:10:13.676Z,7.23
2018-03-15T15:15:04.574Z,6.90
2018-03-15T15:19:56.228Z,7.07
2018-03-15T15:24:47.123Z,9.30
2018-03-15T15:29:38.784Z,7.90
2018-03-15T15:34:29.680Z,10.57
2018-03-15T15:39:21.313Z,9.73
2018-03-15T15:44:12.208Z,9.67
2018-03-15T15:49:03.108Z,8.97
2018-03-15T15:53:54.047Z,9.73
2018-03-15T15:58:44.942Z,10.30
2018-03-15T16:03:36.581Z,11.43
2018-03-15T16:08:27.504Z,9.93
2018-03-15T16:13:18.391Z,12.50
2018-03-15T16:18:09.283Z,10.87
2018-03-15T16:23:00.174Z,11.67
2018-03-15T16:27:51.077Z,11.20
2018-03-15T16:32:41.979Z,11.43
2018-03-15T16:37:33.620Z,13.03
2018-03-15T16:42:24.528Z,12.10
2018-03-15T16:47:15.466Z,12.10
2018-03-15T16:52:06.372Z,11.27
2018-03-15T16:56:57.268Z,12.03
2018-03-15T17:01:48.185Z,13.10
2018-03-15T17:06:46.001Z,13.20
2018-03-15T17:11:36.895Z,11.67
2018-03-15T17:16:28.519Z,12.90
2018-03-15T17:21:20.156Z,13.43
2018-03-15T17:26:11.050Z,12.70
2018-03-15T17:31:01.943Z,13.70
2018-03-15T17:35:52.853Z,13.57
2018-03-15T17:40:43.758Z,13.17
2018-03-15T17:45:36.971Z,12.93
2018-03-15T17:50:28.043Z,13.90
2018-03-15T17:55:18.960Z,15.60
2018-03-15T18:00:09.863Z,17.63
2018-03-15T18:05:00.766Z,17.63
2018-03-15T18:09:51.664Z,15.23
2018-03-15T18:14:42.559Z,16.40
2018-03-15T18:19:33.447Z,16.67
2018-03-15T18:24:24.355Z,15.83
2018-03-15T18:29:15.248Z,17.40
2018-03-15T18:34:06.148Z,19.13
2018-03-15T18:38:57.045Z,17.30
2018-03-15T18:43:47.972Z,15.30
2018-03-15T18:48:41.153Z,17.70
2018-03-15T18:53:32.152Z,19.27
2018-03-15T18:58:23.051Z,18.80
2018-03-15T19:03:14.682Z,19.50
2018-03-15T19:08:05.595Z,17.37
2018-03-15T19:12:56.499Z,19.20
2018-03-15T19:17:47.400Z,19.30
2018-03-15T19:22:39.407Z,20.33
2018-03-15T19:27:30.303Z,20.67
2018-03-15T19:32:21.186Z,21.27
2018-03-15T19:37:12.087Z,21.17
2018-03-15T19:42:02.991Z,20.03
2018-03-15T19:46:53.888Z,20.20
2018-03-15T19:51:45.568Z,21.53
2018-03-15T19:56:36.466Z,24.60
2018-03-15T20:01:27.355Z,23.03
2018-03-15T20:06:18.256Z,22.70
2018-03-15T20:11:09.156Z,21.80
2018-03-15T20:16:00.798Z,25.90
2018-03-15T20:20:52.439Z,25.00
2018-03-15T20:25:43.336Z,24.60
2018-03-15T20:30:34.286Z,22.90
2018-03-15T20:35:25.178Z,24.10
2018-03-15T20:40:22.300Z,24.73
2018-03-15T20:45:19.497Z,24.10
2018-03-15T20:50:11.139Z,25.07
2018-03-15T20:55:02.040Z,25.60
2018-03-15T20:59:52.932Z,24.77
2018-03-15T21:04:59.553Z,25.10
2018-03-15T21:09:50.456Z,25.40
2018-03-15T21:14:42.850Z,28.43
2018-03-15T21:19:33.755Z,26.90
2018-03-15T21:24:24.690Z,24.53
2018-03-15T21:29:16.383Z,25.70
2018-03-15T21:34:07.336Z,27.87
2018-03-15T21:38:58.264Z,24.90
2018-03-15T21:43:49.175Z,25.13
2018-03-15T21:48:40.104Z,28.67
2018-03-15T21:53:32.812Z,29.83
2018-03-15T21:58:23.756Z,27.30
2018-03-15T22:03:14.655Z,29.20
2018-03-15T22:08:05.568Z,26.80
2018-03-15T22:12:57.207Z,32.37
2018-03-15T22:17:48.915Z,29.70
2018-03-15T22:22:40.548Z,32.83
2018-03-15T22:27:31.453Z,25.10
2018-03-15T22:32:23.156Z,26.20
2018-03-15T22:37:14.004Z,29.90
2018-03-15T22:42:04.891Z,27.27
2018-03-15T22:46:55.819Z,25.07
2018-03-15T22:51:46.713Z,32.67
2018-03-15T22:56:37.599Z,30.13
2018-03-15T23:01:28.524Z,28.97
2018-03-15T23:06:19.435Z,31.50
2018-03-15T23:11:10.337Z,28.40
2018-03-15T23:16:02.056Z,26.27
2018-03-15T23:20:52.960Z,29.07
2018-03-15T23:25:43.865Z,28.13
2018-03-15T23:30:35.503Z,32.00
2018-03-15T23:35:26.400Z,25.90
2018-03-15T23:40:17.299Z,29.80
2018-03-15T23:45:08.942Z,31.00
2018-03-15T23:49:59.852Z,35.97
2018-03-15T23:54:50.765Z,35.53
2018-03-15T23:59:41.667Z,31.77
